sensor_id;sensor_type;location;lat;lon;timestamp;pressure;altitude;pressure_sealevel;temperature;humidity
4085;BME280;2057;50.858;6.572;2023-02-12T00:01:32;102539.31;;;6.72;100.00
4085;BME280;2057;50.858;6.572;2023-02-12T00:03:58;102544.81;;;6.68;100.00
4085;BME280;2057;50.858;6.572;2023-02-12T00:06:24;102546.00;;;6.63;100.00
4085;BME280;2057;50.858;6.572;2023-02-12T00:08:51;102545.88;;;6.70;100.00
4085;BME280;2057;50.858;6.572;2023-02-12T00:11:19;102543.34;;;6.70;100.00
4085;BME280;2057;50.858;6.572;2023-02-12T00:13:45;102541.25;;;6.66;100.00
4085;BME280;2057;50.858;6.572;2023-02-12T00:16:17;102547.34;;;6.68;100.00
4085;BME280;2057;50.858;6.572;2023-02-12T00:18:43;102537.56;;;6.71;100.00
4085;BME280;2057;50.858;6.572;2023-02-12T00:21:09;102536.66;;;6.70;100.00
4085;BME280;2057;50.858;6.572;2023-02-12T00:23:36;102546.47;;;6.76;100.00
4085;BME280;2057;50.858;6.572;2023-02-12T00:26:07;102542.00;;;6.73;100.00
4085;BME280;2057;50.858;6.572;2023-02-12T00:28:33;102539.03;;;6.69;100.00
4085;BME280;2057;50.858;6.572;2023-02-12T00:31:07;102533.25;;;6.70;100.00
4085;BME280;2057;50.858;6.572;2023-02-12T00:33:33;102521.97;;;6.75;100.00
4085;BME280;2057;50.858;6.572;2023-02-12T00:35:58;102535.75;;;6.79;100.00
4085;BME280;2057;50.858;6.572;2023-02-12T00:38:23;102534.13;;;6.62;100.00
4085;BME280;2057;50.858;6.572;2023-02-12T00:40:49;102531.88;;;6.56;100.00
4085;BME280;2057;50.858;6.572;2023-02-12T00:43:14;102536.19;;;6.57;100.00
4085;BME280;2057;50.858;6.572;2023-02-12T00:45:40;102527.44;;;6.53;100.00
4085;BME280;2057;50.858;6.572;2023-02-12T00:48:05;102534.28;;;6.54;100.00
4085;BME280;2057;50.858;6.572;2023-02-12T00:50:31;102531.19;;;6.74;100.00
4085;BME280;2057;50.858;6.572;2023-02-12T00:52:56;102531.56;;;6.53;100.00
4085;BME280;2057;50.858;6.572;2023-02-12T00:55:21;102535.44;;;6.49;100.00
4085;BME280;2057;50.858;6.572;2023-02-12T00:57:46;102535.75;;;6.52;100.00
4085;BME280;2057;50.858;6.572;2023-02-12T01:00:13;102525.34;;;6.49;100.00
4085;BME280;2057;50.858;6.572;2023-02-12T01:02:38;102525.47;;;6.51;100.00
4085;BME280;2057;50.858;6.572;2023-02-12T01:05:06;102535.44;;;6.49;100.00
4085;BME280;2057;50.858;6.572;2023-02-12T01:07:31;102537.22;;;6.50;100.00
4085;BME280;2057;50.858;6.572;2023-02-12T01:09:57;102538.88;;;6.50;100.00
4085;BME280;2057;50.858;6.572;2023-02-12T01:12:22;102537.06;;;6.57;100.00
4085;BME280;2057;50.858;6.572;2023-02-12T01:14:47;102540.94;;;6.54;100.00
4085;BME280;2057;50.858;6.572;2023-02-12T01:17:13;102538.69;;;6.48;100.00
4085;BME280;2057;50.858;6.572;2023-02-12T01:19:38;102539.16;;;6.53;100.00
4085;BME280;2057;50.858;6.572;2023-02-12T01:22:04;102534.38;;;6.47;100.00
4085;BME280;2057;50.858;6.572;2023-02-12T01:24:29;102537.22;;;6.50;100.00
4085;BME280;2057;50.858;6.572;2023-02-12T01:26:54;102534.25;;;6.46;100.00
4085;BME280;2057;50.858;6.572;2023-02-12T01:29:20;102540.63;;;6.51;100.00
4085;BME280;2057;50.858;6.572;2023-02-12T01:31:45;102542.59;;;6.53;100.00
4085;BME280;2057;50.858;6.572;2023-02-12T01:34:11;102537.81;;;6.56;100.00
4085;BME280;2057;50.858;6.572;2023-02-12T01:36:37;102539.31;;;6.54;100.00
4085;BME280;2057;50.858;6.572;2023-02-12T01:39:04;102541.06;;;6.55;100.00
4085;BME280;2057;50.858;6.572;2023-02-12T01:41:33;102536.03;;;6.55;100.00
4085;BME280;2057;50.858;6.572;2023-02-12T01:44:06;102529.97;;;6.53;100.00
4085;BME280;2057;50.858;6.572;2023-02-12T01:46:31;102534.56;;;6.57;100.00
4085;BME280;2057;50.858;6.572;2023-02-12T01:48:57;102526.25;;;6.58;100.00
4085;BME280;2057;50.858;6.572;2023-02-12T01:51:23;102531.16;;;6.57;100.00
4085;BME280;2057;50.858;6.572;2023-02-12T01:53:51;102527.44;;;6.53;100.00
4085;BME280;2057;50.858;6.572;2023-02-12T01:56:18;102517.91;;;6.42;100.00
4085;BME280;2057;50.858;6.572;2023-02-12T01:58:45;102524.28;;;6.38;100.00
4085;BME280;2057;50.858;6.572;2023-02-12T02:01:16;102521.31;;;6.34;100.00
4085;BME280;2057;50.858;6.572;2023-02-12T02:03:44;102523.22;;;6.27;100.00
4085;BME280;2057;50.858;6.572;2023-02-12T02:06:16;102525.44;;;6.24;100.00
4085;BME280;2057;50.858;6.572;2023-02-12T02:08:43;102517.22;;;6.09;100.00
4085;BME280;2057;50.858;6.572;2023-02-12T02:11:08;102518.88;;;6.09;100.00
4085;BME280;2057;50.858;6.572;2023-02-12T02:13:53;102511.44;;;6.10;100.00
4085;BME280;2057;50.858;6.572;2023-02-12T02:16:41;102517.06;;;6.08;100.00
4085;BME280;2057;50.858;6.572;2023-02-12T02:22:30;102513.44;;;5.97;100.00
4085;BME280;2057;50.858;6.572;2023-02-12T02:30:25;102520.47;;;6.00;100.00
4085;BME280;2057;50.858;6.572;2023-02-12T02:35:55;102515.44;;;6.08;100.00
4085;BME280;2057;50.858;6.572;2023-02-12T02:38:40;102512.91;;;6.08;100.00
4085;BME280;2057;50.858;6.572;2023-02-12T02:43:48;102513.69;;;6.16;100.00
4085;BME280;2057;50.858;6.572;2023-02-12T02:48:56;102514.88;;;6.20;100.00
4085;BME280;2057;50.858;6.572;2023-02-12T02:51:29;102506.91;;;6.24;100.00
4085;BME280;2057;50.858;6.572;2023-02-12T02:54:08;102506.00;;;6.23;100.00
4085;BME280;2057;50.858;6.572;2023-02-12T02:56:37;102507.19;;;6.27;100.00
4085;BME280;2057;50.858;6.572;2023-02-12T02:59:10;102504.38;;;6.24;100.00
4085;BME280;2057;50.858;6.572;2023-02-12T03:01:43;102506.31;;;6.26;100.00
4085;BME280;2057;50.858;6.572;2023-02-12T03:04:19;102505.25;;;6.33;100.00
4085;BME280;2057;50.858;6.572;2023-02-12T03:09:28;102507.97;;;6.35;100.00
4085;BME280;2057;50.858;6.572;2023-02-12T03:12:00;102504.84;;;6.37;100.00
4085;BME280;2057;50.858;6.572;2023-02-12T03:14:31;102508.56;;;6.41;100.00
4085;BME280;2057;50.858;6.572;2023-02-12T03:17:04;102504.38;;;6.33;100.00
4085;BME280;2057;50.858;6.572;2023-02-12T03:19:35;102506.47;;;6.37;100.00
4085;BME280;2057;50.858;6.572;2023-02-12T03:22:15;102509.16;;;6.38;100.00
4085;BME280;2057;50.858;6.572;2023-02-12T03:24:48;102501.88;;;6.41;100.00
4085;BME280;2057;50.858;6.572;2023-02-12T03:27:30;102507.81;;;6.42;100.00
4085;BME280;2057;50.858;6.572;2023-02-12T03:29:57;102507.81;;;6.42;100.00
4085;BME280;2057;50.858;6.572;2023-02-12T03:35:43;102507.81;;;6.42;100.00
4085;BME280;2057;50.858;6.572;2023-02-12T03:41:13;102505.16;;;6.40;100.00
4085;BME280;2057;50.858;6.572;2023-02-12T03:43:53;102489.41;;;6.43;100.00
4085;BME280;2057;50.858;6.572;2023-02-12T03:46:26;102499.19;;;6.40;100.00
4085;BME280;2057;50.858;6.572;2023-02-12T03:49:01;102498.91;;;6.37;100.00
4085;BME280;2057;50.858;6.572;2023-02-12T03:51:36;102498.91;;;6.37;100.00
4085;BME280;2057;50.858;6.572;2023-02-12T03:54:03;102492.97;;;6.36;100.00
4085;BME280;2057;50.858;6.572;2023-02-12T03:56:49;102497.69;;;6.33;100.00
4085;BME280;2057;50.858;6.572;2023-02-12T03:59:21;102500.66;;;6.29;100.00
4085;BME280;2057;50.858;6.572;2023-02-12T04:01:47;102499.34;;;6.33;100.00
4085;BME280;2057;50.858;6.572;2023-02-12T04:04:14;102499.34;;;6.33;100.00
4085;BME280;2057;50.858;6.572;2023-02-12T04:06:40;102498.28;;;6.31;100.00
4085;BME280;2057;50.858;6.572;2023-02-12T04:09:08;102497.13;;;6.36;100.00
4085;BME280;2057;50.858;6.572;2023-02-12T04:22:53;102519.66;;;6.25;100.00
4085;BME280;2057;50.858;6.572;2023-02-12T04:25:40;102515.66;;;6.27;100.00
4085;BME280;2057;50.858;6.572;2023-02-12T04:28:33;102515.94;;;6.22;100.00
4085;BME280;2057;50.858;6.572;2023-02-12T04:31:29;102528.28;;;6.27;100.00
4085;BME280;2057;50.858;6.572;2023-02-12T04:36:34;102529.00;;;6.26;100.00
4085;BME280;2057;50.858;6.572;2023-02-12T04:39:08;102532.59;;;6.28;100.00
4085;BME280;2057;50.858;6.572;2023-02-12T04:41:36;102531.34;;;6.25;100.00
4085;BME280;2057;50.858;6.572;2023-02-12T04:44:22;102539.25;;;6.28;100.00
4085;BME280;2057;50.858;6.572;2023-02-12T04:46:49;102540.09;;;6.20;100.00
4085;BME280;2057;50.858;6.572;2023-02-12T04:49:16;102541.56;;;6.18;100.00
4085;BME280;2057;50.858;6.572;2023-02-12T04:51:42;102537.59;;;6.20;100.00
4085;BME280;2057;50.858;6.572;2023-02-12T04:54:08;102543.22;;;6.26;100.00
4085;BME280;2057;50.858;6.572;2023-02-12T04:56:34;102537.78;;;6.30;100.00
4085;BME280;2057;50.858;6.572;2023-02-12T04:58:59;102534.78;;;6.25;100.00
4085;BME280;2057;50.858;6.572;2023-02-12T05:01:24;102534.47;;;6.22;100.00
4085;BME280;2057;50.858;6.572;2023-02-12T05:03:53;102526.75;;;6.21;100.00
4085;BME280;2057;50.858;6.572;2023-02-12T05:06:18;102531.34;;;6.16;100.00
4085;BME280;2057;50.858;6.572;2023-02-12T05:08:44;102519.59;;;6.08;100.00
4085;BME280;2057;50.858;6.572;2023-02-12T05:11:10;102532.63;;;6.04;100.00
4085;BME280;2057;50.858;6.572;2023-02-12T05:13:36;102525.78;;;6.03;100.00
4085;BME280;2057;50.858;6.572;2023-02-12T05:16:06;102532.47;;;6.02;100.00
4085;BME280;2057;50.858;6.572;2023-02-12T05:18:33;102525.66;;;6.01;100.00
4085;BME280;2057;50.858;6.572;2023-02-12T05:21:01;102535.00;;;6.02;100.00
4085;BME280;2057;50.858;6.572;2023-02-12T05:23:30;102531.41;;;6.00;100.00
4085;BME280;2057;50.858;6.572;2023-02-12T05:26:02;102537.66;;;6.04;100.00
4085;BME280;2057;50.858;6.572;2023-02-12T05:28:28;102535.59;;;6.00;100.00
4085;BME280;2057;50.858;6.572;2023-02-12T05:30:54;102540.25;;;5.88;100.00
4085;BME280;2057;50.858;6.572;2023-02-12T05:33:19;102536.81;;;5.87;100.00
4085;BME280;2057;50.858;6.572;2023-02-12T05:35:44;102535.63;;;5.84;100.00
4085;BME280;2057;50.858;6.572;2023-02-12T05:38:10;102546.16;;;5.88;100.00
4085;BME280;2057;50.858;6.572;2023-02-12T05:40:35;102547.47;;;5.76;100.00
4085;BME280;2057;50.858;6.572;2023-02-12T05:43:01;102542.84;;;5.72;100.00
4085;BME280;2057;50.858;6.572;2023-02-12T05:45:27;102545.22;;;5.70;100.00
4085;BME280;2057;50.858;6.572;2023-02-12T05:47:56;102551.44;;;5.74;100.00
4085;BME280;2057;50.858;6.572;2023-02-12T05:50:22;102548.19;;;5.75;100.00
4085;BME280;2057;50.858;6.572;2023-02-12T05:52:47;102551.56;;;5.67;100.00
4085;BME280;2057;50.858;6.572;2023-02-12T05:55:12;102551.09;;;5.62;100.00
4085;BME280;2057;50.858;6.572;2023-02-12T05:57:38;102552.91;;;5.72;100.00
4085;BME280;2057;50.858;6.572;2023-02-12T06:00:05;102551.84;;;5.70;100.00
4085;BME280;2057;50.858;6.572;2023-02-12T06:02:34;102544.66;;;5.81;100.00
4085;BME280;2057;50.858;6.572;2023-02-12T06:05:00;102551.81;;;5.86;100.00
4085;BME280;2057;50.858;6.572;2023-02-12T06:07:26;102557.47;;;5.92;100.00
4085;BME280;2057;50.858;6.572;2023-02-12T06:09:51;102558.31;;;5.84;100.00
4085;BME280;2057;50.858;6.572;2023-02-12T06:12:17;102552.38;;;5.83;100.00
4085;BME280;2057;50.858;6.572;2023-02-12T06:14:42;102556.56;;;5.91;100.00
4085;BME280;2057;50.858;6.572;2023-02-12T06:17:08;102556.00;;;5.94;100.00
4085;BME280;2057;50.858;6.572;2023-02-12T06:19:33;102556.00;;;5.94;100.00
4085;BME280;2057;50.858;6.572;2023-02-12T06:21:59;102548.06;;;5.82;100.00
4085;BME280;2057;50.858;6.572;2023-02-12T06:24:24;102550.00;;;5.85;100.00
4085;BME280;2057;50.858;6.572;2023-02-12T06:26:50;102549.53;;;5.80;100.00
4085;BME280;2057;50.858;6.572;2023-02-12T06:29:17;102547.63;;;5.86;100.00
4085;BME280;2057;50.858;6.572;2023-02-12T06:31:42;102543.78;;;5.81;100.00
4085;BME280;2057;50.858;6.572;2023-02-12T06:34:09;102541.56;;;5.84;100.00
4085;BME280;2057;50.858;6.572;2023-02-12T06:36:37;102548.28;;;5.92;100.00
4085;BME280;2057;50.858;6.572;2023-02-12T06:39:03;102555.63;;;5.82;100.00
4085;BME280;2057;50.858;6.572;2023-02-12T06:41:29;102558.28;;;5.75;100.00
4085;BME280;2057;50.858;6.572;2023-02-12T06:43:54;102559.47;;;5.78;100.00
4085;BME280;2057;50.858;6.572;2023-02-12T06:46:20;102566.88;;;5.77;100.00
4085;BME280;2057;50.858;6.572;2023-02-12T06:48:46;102564.44;;;5.70;100.00
4085;BME280;2057;50.858;6.572;2023-02-12T06:51:16;102568.88;;;5.63;100.00
4085;BME280;2057;50.858;6.572;2023-02-12T06:53:43;102568.53;;;5.60;100.00
4085;BME280;2057;50.858;6.572;2023-02-12T06:56:10;102578.81;;;5.62;100.00
4085;BME280;2057;50.858;6.572;2023-02-12T06:58:38;102579.53;;;5.61;100.00
4085;BME280;2057;50.858;6.572;2023-02-12T07:01:12;102579.34;;;5.59;100.00
4085;BME280;2057;50.858;6.572;2023-02-12T07:03:43;102578.63;;;5.60;100.00
4085;BME280;2057;50.858;6.572;2023-02-12T07:06:11;102581.63;;;5.65;100.00
4085;BME280;2057;50.858;6.572;2023-02-12T07:08:36;102584.22;;;5.74;100.00
4085;BME280;2057;50.858;6.572;2023-02-12T07:11:02;102584.72;;;5.62;100.00
4085;BME280;2057;50.858;6.572;2023-02-12T07:13:27;102585.19;;;5.67;100.00
4085;BME280;2057;50.858;6.572;2023-02-12T07:15:53;102578.44;;;5.75;100.00
4085;BME280;2057;50.858;6.572;2023-02-12T07:18:18;102589.28;;;5.82;100.00
4085;BME280;2057;50.858;6.572;2023-02-12T07:20:44;102587.22;;;5.78;100.00
4085;BME280;2057;50.858;6.572;2023-02-12T07:23:12;102590.59;;;5.79;100.00
4085;BME280;2057;50.858;6.572;2023-02-12T07:25:38;102591.78;;;5.74;100.00
4085;BME280;2057;50.858;6.572;2023-02-12T07:28:03;102600.78;;;5.72;100.00
4085;BME280;2057;50.858;6.572;2023-02-12T07:30:29;102597.44;;;5.80;100.00
4085;BME280;2057;50.858;6.572;2023-02-12T07:32:54;102602.72;;;5.74;100.00
4085;BME280;2057;50.858;6.572;2023-02-12T07:35:19;102602.59;;;5.73;100.00
4085;BME280;2057;50.858;6.572;2023-02-12T07:37:45;102606.16;;;5.75;100.00
4085;BME280;2057;50.858;6.572;2023-02-12T07:40:12;102613.72;;;5.75;100.00
4085;BME280;2057;50.858;6.572;2023-02-12T07:42:37;102611.09;;;5.82;100.00
4085;BME280;2057;50.858;6.572;2023-02-12T07:45:03;102629.22;;;5.87;100.00
4085;BME280;2057;50.858;6.572;2023-02-12T07:47:28;102610.97;;;5.89;100.00
4085;BME280;2057;50.858;6.572;2023-02-12T07:49:54;102613.19;;;5.86;100.00
4085;BME280;2057;50.858;6.572;2023-02-12T07:52:19;102617.34;;;5.86;100.00
4085;BME280;2057;50.858;6.572;2023-02-12T07:54:47;102623.38;;;5.79;100.00
4085;BME280;2057;50.858;6.572;2023-02-12T07:57:13;102620.00;;;5.87;100.00
4085;BME280;2057;50.858;6.572;2023-02-12T07:59:38;102620.00;;;5.87;100.00
4085;BME280;2057;50.858;6.572;2023-02-12T08:02:03;102622.53;;;5.87;100.00
4085;BME280;2057;50.858;6.572;2023-02-12T08:04:29;102621.81;;;5.88;100.00
4085;BME280;2057;50.858;6.572;2023-02-12T08:06:55;102625.22;;;5.89;100.00
4085;BME280;2057;50.858;6.572;2023-02-12T08:09:26;102614.56;;;5.91;100.00
4085;BME280;2057;50.858;6.572;2023-02-12T08:11:52;102621.13;;;5.98;100.00
4085;BME280;2057;50.858;6.572;2023-02-12T08:14:19;102623.00;;;6.08;100.00
4085;BME280;2057;50.858;6.572;2023-02-12T08:16:46;102629.38;;;6.13;100.00
4085;BME280;2057;50.858;6.572;2023-02-12T08:19:12;102629.72;;;6.16;100.00
4085;BME280;2057;50.858;6.572;2023-02-12T08:21:38;102620.66;;;6.18;100.00
4085;BME280;2057;50.858;6.572;2023-02-12T08:24:04;102625.88;;;6.20;100.00
4085;BME280;2057;50.858;6.572;2023-02-12T08:26:37;102625.28;;;6.22;100.00
4085;BME280;2057;50.858;6.572;2023-02-12T08:29:06;102632.09;;;6.15;100.00
4085;BME280;2057;50.858;6.572;2023-02-12T08:31:34;102626.91;;;6.22;100.00
4085;BME280;2057;50.858;6.572;2023-02-12T08:34:00;102623.28;;;6.36;100.00
4085;BME280;2057;50.858;6.572;2023-02-12T08:36:28;102634.97;;;6.26;100.00
4085;BME280;2057;50.858;6.572;2023-02-12T08:38:57;102628.25;;;6.27;100.00
4085;BME280;2057;50.858;6.572;2023-02-12T08:41:26;102630.78;;;6.27;100.00
4085;BME280;2057;50.858;6.572;2023-02-12T08:43:54;102633.63;;;6.30;100.00
4085;BME280;2057;50.858;6.572;2023-02-12T08:46:27;102625.47;;;6.33;100.00
4085;BME280;2057;50.858;6.572;2023-02-12T08:48:55;102628.88;;;6.33;100.00
4085;BME280;2057;50.858;6.572;2023-02-12T08:51:23;102627.13;;;6.41;100.00
4085;BME280;2057;50.858;6.572;2023-02-12T08:53:58;102634.28;;;6.45;100.00
4085;BME280;2057;50.858;6.572;2023-02-12T08:56:24;102623.44;;;6.46;100.00
4085;BME280;2057;50.858;6.572;2023-02-12T08:58:50;102617.69;;;6.56;100.00
4085;BME280;2057;50.858;6.572;2023-02-12T09:01:27;102622.88;;;6.57;100.00
4085;BME280;2057;50.858;6.572;2023-02-12T09:03:53;102627.97;;;6.66;100.00
4085;BME280;2057;50.858;6.572;2023-02-12T09:06:23;102622.34;;;6.69;100.00
4085;BME280;2057;50.858;6.572;2023-02-12T09:08:49;102624.84;;;6.69;100.00
4085;BME280;2057;50.858;6.572;2023-02-12T09:11:17;102629.75;;;6.67;100.00
4085;BME280;2057;50.858;6.572;2023-02-12T09:13:44;102625.16;;;6.72;100.00
4085;BME280;2057;50.858;6.572;2023-02-12T09:16:10;102620.88;;;6.71;100.00
4085;BME280;2057;50.858;6.572;2023-02-12T09:18:36;102625.78;;;6.78;100.00
4085;BME280;2057;50.858;6.572;2023-02-12T09:21:08;102624.00;;;6.77;100.00
4085;BME280;2057;50.858;6.572;2023-02-12T09:23:34;102626.06;;;6.81;100.00
4085;BME280;2057;50.858;6.572;2023-02-12T09:26:04;102623.44;;;6.88;100.00
4085;BME280;2057;50.858;6.572;2023-02-12T09:28:29;102628.63;;;6.99;100.00
4085;BME280;2057;50.858;6.572;2023-02-12T09:30:55;102623.16;;;7.03;100.00
4085;BME280;2057;50.858;6.572;2023-02-12T09:33:20;102628.19;;;7.03;100.00
4085;BME280;2057;50.858;6.572;2023-02-12T09:35:48;102628.66;;;7.07;100.00
4085;BME280;2057;50.858;6.572;2023-02-12T09:38:14;102623.13;;;7.12;100.00
4085;BME280;2057;50.858;6.572;2023-02-12T09:49:08;102632.38;;;7.29;100.00
4085;BME280;2057;50.858;6.572;2023-02-12T09:51:37;102641.88;;;7.31;100.00
4085;BME280;2057;50.858;6.572;2023-02-12T09:54:05;102642.63;;;7.30;100.00
4085;BME280;2057;50.858;6.572;2023-02-12T09:56:33;102640.09;;;7.30;100.00
4085;BME280;2057;50.858;6.572;2023-02-12T09:59:05;102642.47;;;7.37;100.00
4085;BME280;2057;50.858;6.572;2023-02-12T10:01:30;102639.50;;;7.42;100.00
4085;BME280;2057;50.858;6.572;2023-02-12T10:03:56;102637.44;;;7.46;100.00
4085;BME280;2057;50.858;6.572;2023-02-12T10:06:28;102645.75;;;7.45;100.00
4085;BME280;2057;50.858;6.572;2023-02-12T10:11:59;102641.59;;;7.37;100.00
4085;BME280;2057;50.858;6.572;2023-02-12T10:17:32;102642.78;;;7.41;100.00
4085;BME280;2057;50.858;6.572;2023-02-12T10:25:49;102646.94;;;7.49;100.00
4085;BME280;2057;50.858;6.572;2023-02-12T10:28:24;102652.28;;;7.61;100.00
4085;BME280;2057;50.858;6.572;2023-02-12T10:31:02;102654.97;;;7.62;100.00
4085;BME280;2057;50.858;6.572;2023-02-12T10:33:36;102655.09;;;7.55;100.00
4085;BME280;2057;50.858;6.572;2023-02-12T10:36:15;102655.84;;;7.63;100.00
4085;BME280;2057;50.858;6.572;2023-02-12T10:38:48;102659.13;;;7.62;100.00
4085;BME280;2057;50.858;6.572;2023-02-12T10:41:15;102647.06;;;7.68;100.00
4085;BME280;2057;50.858;6.572;2023-02-12T10:43:41;102649.13;;;7.81;100.00
4085;BME280;2057;50.858;6.572;2023-02-12T10:46:13;102641.88;;;7.75;100.00
4085;BME280;2057;50.858;6.572;2023-02-12T10:48:45;102645.44;;;7.68;100.00
4085;BME280;2057;50.858;6.572;2023-02-12T10:51:29;102642.75;;;7.84;100.00
4085;BME280;2057;50.858;6.572;2023-02-12T10:54:37;102642.44;;;7.81;100.00
4085;BME280;2057;50.858;6.572;2023-02-12T10:57:26;102650.75;;;7.89;100.00
4085;BME280;2057;50.858;6.572;2023-02-12T10:59:54;102645.38;;;7.95;100.00
4085;BME280;2057;50.858;6.572;2023-02-12T11:02:30;102640.28;;;8.12;100.00
4085;BME280;2057;50.858;6.572;2023-02-12T11:04:57;102642.06;;;8.13;100.00
4085;BME280;2057;50.858;6.572;2023-02-12T11:07:24;102636.38;;;8.25;100.00
4085;BME280;2057;50.858;6.572;2023-02-12T11:09:53;102640.88;;;8.19;100.00
4085;BME280;2057;50.858;6.572;2023-02-12T11:14:56;102639.34;;;8.29;100.00
4085;BME280;2057;50.858;6.572;2023-02-12T11:22:28;102628.59;;;8.41;100.00
4085;BME280;2057;50.858;6.572;2023-02-12T11:25:13;102622.31;;;8.37;100.00
4085;BME280;2057;50.858;6.572;2023-02-12T11:27:40;102622.94;;;8.35;100.00
4085;BME280;2057;50.858;6.572;2023-02-12T11:32:35;102614.69;;;8.46;100.00
4085;BME280;2057;50.858;6.572;2023-02-12T11:35:16;102604.16;;;8.41;100.00
4085;BME280;2057;50.858;6.572;2023-02-12T11:37:51;102606.06;;;8.44;100.00
4085;BME280;2057;50.858;6.572;2023-02-12T11:40:21;102606.97;;;8.44;100.00
4085;BME280;2057;50.858;6.572;2023-02-12T11:42:56;102606.06;;;8.53;100.00
4085;BME280;2057;50.858;6.572;2023-02-12T11:45:29;102610.03;;;8.59;100.00
4085;BME280;2057;50.858;6.572;2023-02-12T11:47:56;102607.34;;;8.67;100.00
4085;BME280;2057;50.858;6.572;2023-02-12T11:50:28;102601.06;;;8.63;100.00
4085;BME280;2057;50.858;6.572;2023-02-12T11:53:01;102602.84;;;8.64;100.00
4085;BME280;2057;50.858;6.572;2023-02-12T11:55:33;102603.06;;;8.76;100.00
4085;BME280;2057;50.858;6.572;2023-02-12T11:58:13;102600.91;;;8.70;100.00
4085;BME280;2057;50.858;6.572;2023-02-12T12:03:14;102593.84;;;8.76;100.00
4085;BME280;2057;50.858;6.572;2023-02-12T12:05:52;102590.41;;;8.76;100.00
4085;BME280;2057;50.858;6.572;2023-02-12T12:08:23;102590.91;;;8.72;100.00
4085;BME280;2057;50.858;6.572;2023-02-12T12:10:57;102586.59;;;8.71;100.00
4085;BME280;2057;50.858;6.572;2023-02-12T12:13:34;102585.94;;;8.82;100.00
4085;BME280;2057;50.858;6.572;2023-02-12T12:16:26;102577.63;;;8.74;100.00
4085;BME280;2057;50.858;6.572;2023-02-12T12:19:19;102575.78;;;8.82;100.00
4085;BME280;2057;50.858;6.572;2023-02-12T12:31:07;102564.38;;;8.96;100.00
4085;BME280;2057;50.858;6.572;2023-02-12T12:39:14;102555.31;;;8.89;100.00
4085;BME280;2057;50.858;6.572;2023-02-12T12:42:14;102552.66;;;8.88;100.00
4085;BME280;2057;50.858;6.572;2023-02-12T13:12:21;102515.13;;;9.32;100.00
4085;BME280;2057;50.858;6.572;2023-02-12T13:14:57;102512.94;;;9.56;100.00
4085;BME280;2057;50.858;6.572;2023-02-12T13:17:34;102517.75;;;9.53;100.00
4085;BME280;2057;50.858;6.572;2023-02-12T13:20:09;102506.34;;;9.58;100.00
4085;BME280;2057;50.858;6.572;2023-02-12T13:22:51;102505.59;;;9.59;100.00
4085;BME280;2057;50.858;6.572;2023-02-12T13:28:37;102499.03;;;9.71;100.00
4085;BME280;2057;50.858;6.572;2023-02-12T13:31:07;102499.00;;;9.61;100.00
4085;BME280;2057;50.858;6.572;2023-02-12T13:33:42;102493.03;;;9.50;100.00
4085;BME280;2057;50.858;6.572;2023-02-12T13:36:12;102491.41;;;9.61;100.00
4085;BME280;2057;50.858;6.572;2023-02-12T13:38:42;102501.03;;;9.55;100.00
4085;BME280;2057;50.858;6.572;2023-02-12T13:41:10;102494.13;;;9.44;100.00
4085;BME280;2057;50.858;6.572;2023-02-12T13:44:00;102491.38;;;9.51;100.00
4085;BME280;2057;50.858;6.572;2023-02-12T13:49:19;102489.97;;;9.54;100.00
4085;BME280;2057;50.858;6.572;2023-02-12T13:51:52;102494.44;;;9.67;100.00
4085;BME280;2057;50.858;6.572;2023-02-12T13:55:17;102493.09;;;9.71;100.00
4085;BME280;2057;50.858;6.572;2023-02-12T13:57:21;102484.81;;;9.63;100.00
4085;BME280;2057;50.858;6.572;2023-02-12T13:59:54;102486.59;;;9.64;100.00
4085;BME280;2057;50.858;6.572;2023-02-12T14:04:59;102480.13;;;9.68;100.00
4085;BME280;2057;50.858;6.572;2023-02-12T14:07:52;102477.47;;;9.77;100.00
4085;BME280;2057;50.858;6.572;2023-02-12T14:10:39;102474.19;;;9.78;100.00
4085;BME280;2057;50.858;6.572;2023-02-12T14:13:18;102479.38;;;9.69;100.00
4085;BME280;2057;50.858;6.572;2023-02-12T14:15:48;102472.78;;;9.61;100.00
4085;BME280;2057;50.858;6.572;2023-02-12T14:23:45;102473.63;;;9.51;100.00
4085;BME280;2057;50.858;6.572;2023-02-12T14:26:17;102486.06;;;9.58;100.00
4085;BME280;2057;50.858;6.572;2023-02-12T14:28:52;102481.63;;;9.55;100.00
4085;BME280;2057;50.858;6.572;2023-02-12T14:39:02;102478.59;;;9.60;100.00
4085;BME280;2057;50.858;6.572;2023-02-12T14:41:31;102476.19;;;9.61;100.00
4085;BME280;2057;50.858;6.572;2023-02-12T14:46:53;102462.94;;;9.45;100.00
4085;BME280;2057;50.858;6.572;2023-02-12T14:49:32;102476.13;;;9.40;100.00
4085;BME280;2057;50.858;6.572;2023-02-12T14:52:05;102471.44;;;9.45;100.00
4085;BME280;2057;50.858;6.572;2023-02-12T15:00:00;102469.75;;;9.35;100.00
4085;BME280;2057;50.858;6.572;2023-02-12T15:02:29;102466.09;;;9.32;100.00
4085;BME280;2057;50.858;6.572;2023-02-12T15:05:21;102473.16;;;9.25;100.00
4085;BME280;2057;50.858;6.572;2023-02-12T15:07:51;102468.84;;;9.24;100.00
4085;BME280;2057;50.858;6.572;2023-02-12T15:10:22;102469.53;;;9.42;100.00
4085;BME280;2057;50.858;6.572;2023-02-12T15:13:17;102479.63;;;9.32;100.00
4085;BME280;2057;50.858;6.572;2023-02-12T15:16:14;102473.22;;;9.36;100.00
4085;BME280;2057;50.858;6.572;2023-02-12T15:18:55;102477.72;;;9.30;100.00
4085;BME280;2057;50.858;6.572;2023-02-12T15:21:27;102473.56;;;9.30;100.00
4085;BME280;2057;50.858;6.572;2023-02-12T15:24:10;102475.53;;;9.24;100.00
4085;BME280;2057;50.858;6.572;2023-02-12T15:26:46;102467.47;;;9.28;100.00
4085;BME280;2057;50.858;6.572;2023-02-12T15:31:49;102466.09;;;9.32;100.00
4085;BME280;2057;50.858;6.572;2023-02-12T15:34:19;102471.44;;;9.35;100.00
4085;BME280;2057;50.858;6.572;2023-02-12T15:36:46;102466.63;;;9.08;100.00
4085;BME280;2057;50.858;6.572;2023-02-12T15:39:20;102461.06;;;9.13;100.00
4085;BME280;2057;50.858;6.572;2023-02-12T15:41:46;102464.34;;;9.12;100.00
4085;BME280;2057;50.858;6.572;2023-02-12T15:46:56;102464.88;;;9.18;100.00
4085;BME280;2057;50.858;6.572;2023-02-12T15:49:27;102464.22;;;9.10;100.00
4085;BME280;2057;50.858;6.572;2023-02-12T15:51:53;102460.31;;;9.14;100.00
4085;BME280;2057;50.858;6.572;2023-02-12T15:54:19;102457.50;;;9.10;100.00
4085;BME280;2057;50.858;6.572;2023-02-12T15:56:45;102454.97;;;9.10;100.00